Plymouth Union, Vermont
Current Conditions -  °F | °C
As of 8:15 AM on Saturday 22 Nov 2014 (Local Time) from KRUT Reporting Station
Few Clouds Few Clouds  
Wind Chill: 18°   Ceiling: Unl
Heat Index: 25°   Visibility: 10mi
Dew Point: 10°   Wind: 6mph
Humidity: 54%   Direction: 160°SSE
Pressure: 30.3"   Gusts: NA
Location:  43.5113°N, 72.7233°W
Report Text: KRUT 221315Z 16005KT 10SM FEW032 M04/M12 A3030 RMK AO1
Loading
Personal Weather Stations






























Interactive Weather Map New forecast layout! Learn more

10-Day Weather Forecast

Advertisements
Track Severe Weather on mobile